createdAt,value
2022-08-26T00:01:34.689Z,17.20
2022-08-26T00:06:38.495Z,17.20
2022-08-26T00:11:46.667Z,17.10
2022-08-26T00:16:52.083Z,17.10
2022-08-26T00:21:58.351Z,17.00
2022-08-26T00:27:07.127Z,16.90
2022-08-26T00:32:12.653Z,16.70
2022-08-26T00:37:18.745Z,16.60
2022-08-26T00:42:21.952Z,16.50
2022-08-26T00:47:35.520Z,16.40
2022-08-26T00:52:41.725Z,16.40
2022-08-26T00:57:49.347Z,16.30
2022-08-26T01:02:56.092Z,16.20
2022-08-26T01:07:59.321Z,16.10
2022-08-26T01:13:06.198Z,16.00
2022-08-26T01:18:12.831Z,15.90
2022-08-26T01:23:18.034Z,15.90
2022-08-26T01:28:29.681Z,15.90
2022-08-26T01:33:42.039Z,15.90
2022-08-26T01:38:47.386Z,15.80
2022-08-26T01:43:55.150Z,15.80
2022-08-26T01:49:01.152Z,15.80
2022-08-26T01:54:06.561Z,15.80
2022-08-26T01:59:13.063Z,15.70
2022-08-26T02:04:22.314Z,15.70
2022-08-26T02:09:27.223Z,15.60
2022-08-26T02:14:34.315Z,15.50
2022-08-26T02:19:42.864Z,15.50
2022-08-26T02:24:53.087Z,15.40
2022-08-26T02:29:59.861Z,15.40
2022-08-26T02:35:05.184Z,15.40
2022-08-26T02:40:12.969Z,15.40
2022-08-26T02:45:23.268Z,15.30
2022-08-26T02:50:27.908Z,15.30
2022-08-26T02:55:33.016Z,15.20
2022-08-26T03:00:38.423Z,15.10
2022-08-26T03:05:42.503Z,15.00
2022-08-26T03:10:48.156Z,15.00
2022-08-26T03:15:52.686Z,15.00
2022-08-26T03:20:55.925Z,14.90
2022-08-26T03:26:00.495Z,14.80
2022-08-26T03:31:03.913Z,14.90
2022-08-26T03:36:08.882Z,14.80
2022-08-26T03:41:13.510Z,14.70
2022-08-26T03:46:17.044Z,14.70
2022-08-26T03:51:21.015Z,14.70
2022-08-26T03:56:25.914Z,14.70
2022-08-26T04:01:30.096Z,14.60
2022-08-26T04:06:36.598Z,14.50
2022-08-26T04:11:42.161Z,14.50
2022-08-26T04:16:45.967Z,14.40
2022-08-26T04:21:53.303Z,14.40
2022-08-26T04:26:58.166Z,14.30
2022-08-26T04:32:02.983Z,14.30
2022-08-26T04:37:13.355Z,14.20
2022-08-26T04:42:26.144Z,14.30
2022-08-26T04:47:32.300Z,14.30
2022-08-26T04:52:36.345Z,14.30
2022-08-26T04:57:41.592Z,14.30
2022-08-26T05:02:44.818Z,14.40
2022-08-26T05:07:48.147Z,14.50
2022-08-26T05:12:54.572Z,14.50
2022-08-26T05:17:59.163Z,14.60
2022-08-26T05:23:04.548Z,14.70
2022-08-26T05:28:09.472Z,14.80
2022-08-26T05:33:13.546Z,14.80
2022-08-26T05:38:19.383Z,14.90
2022-08-26T05:43:24.105Z,15.00
2022-08-26T05:48:27.951Z,15.00
2022-08-26T05:53:31.937Z,15.10
2022-08-26T05:58:38.016Z,15.20
2022-08-26T06:03:44.736Z,15.40
2022-08-26T06:08:48.604Z,15.70
2022-08-26T06:13:54.426Z,16.00
2022-08-26T06:18:57.987Z,16.40
2022-08-26T06:24:21.561Z,16.70
2022-08-26T06:29:34.898Z,17.00
2022-08-26T06:34:39.534Z,18.10
2022-08-26T06:39:43.038Z,22.90
2022-08-26T06:44:47.604Z,28.40
2022-08-26T06:49:51.398Z,31.70
2022-08-26T06:54:55.030Z,32.70
2022-08-26T06:59:59.668Z,34.10
2022-08-26T07:05:03.026Z,35.10
2022-08-26T07:10:08.577Z,34.80
2022-08-26T07:15:14.685Z,35.30
2022-08-26T07:20:18.392Z,35.20
2022-08-26T07:25:22.830Z,34.70
2022-08-26T07:30:28.042Z,34.10
2022-08-26T07:35:31.204Z,34.90
2022-08-26T07:40:40.756Z,35.10
2022-08-26T07:45:45.470Z,35.00
2022-08-26T07:50:50.522Z,36.20
2022-08-26T07:55:57.375Z,37.00
2022-08-26T08:01:02.629Z,34.40
2022-08-26T08:06:08.923Z,35.10
2022-08-26T08:11:13.104Z,36.20
2022-08-26T08:16:17.992Z,36.70
2022-08-26T08:21:26.990Z,37.60
2022-08-26T08:26:30.388Z,37.60
2022-08-26T08:36:59.221Z,35.80
2022-08-26T08:42:37.935Z,36.60
2022-08-26T08:47:47.511Z,35.40
2022-08-26T08:52:57.268Z,36.30
2022-08-26T08:58:04.768Z,36.70
2022-08-26T09:03:18.936Z,36.80
2022-08-26T09:08:31.085Z,36.80
2022-08-26T09:13:36.743Z,37.40
2022-08-26T09:18:54.662Z,36.50
2022-08-26T09:23:58.770Z,36.90
2022-08-26T09:29:04.644Z,36.60
2022-08-26T09:34:17.319Z,36.10
2022-08-26T09:39:31.430Z,36.80
2022-08-26T09:44:35.381Z,36.00
2022-08-26T09:49:42.348Z,37.00
2022-08-26T09:54:46.592Z,36.70
2022-08-26T09:59:51.085Z,35.70
2022-08-26T10:04:58.956Z,35.80
2022-08-26T10:10:18.365Z,35.30
2022-08-26T10:15:25.392Z,35.00
2022-08-26T10:20:33.766Z,33.50
2022-08-26T10:25:48.753Z,33.10
2022-08-26T10:30:57.386Z,32.60
2022-08-26T10:36:36.432Z,32.40
2022-08-26T10:41:48.819Z,32.60
2022-08-26T10:46:57.491Z,33.70
2022-08-26T10:52:15.146Z,34.50
2022-08-26T10:57:27.819Z,33.60
2022-08-26T11:02:40.270Z,33.70
2022-08-26T11:07:54.865Z,33.10
2022-08-26T11:13:00.884Z,32.50
2022-08-26T11:18:07.463Z,31.50
2022-08-26T11:23:50.445Z,31.90
2022-08-26T11:28:54.112Z,32.70
2022-08-26T11:33:59.828Z,32.50
2022-08-26T11:39:14.171Z,32.60
2022-08-26T11:44:20.250Z,32.20
2022-08-26T11:49:24.988Z,32.30
2022-08-26T11:54:35.587Z,32.40
2022-08-26T11:59:42.402Z,32.40
2022-08-26T12:04:49.938Z,32.50
2022-08-26T12:10:00.494Z,32.40
2022-08-26T12:15:12.664Z,32.60
2022-08-26T12:20:21.456Z,32.70
2022-08-26T12:25:28.523Z,32.20
2022-08-26T12:30:39.577Z,32.50
2022-08-26T12:35:43.101Z,32.50
2022-08-26T12:40:50.306Z,32.50
2022-08-26T12:45:58.486Z,31.00
2022-08-26T12:51:02.352Z,30.40
2022-08-26T12:56:28.418Z,29.90
2022-08-26T13:01:39.213Z,29.70
2022-08-26T13:06:42.556Z,29.50
2022-08-26T13:12:02.131Z,29.70
2022-08-26T13:17:05.734Z,29.90
2022-08-26T13:22:13.002Z,30.50
2022-08-26T13:27:20.568Z,31.50
2022-08-26T13:32:24.787Z,32.50
2022-08-26T13:37:34.532Z,32.60
2022-08-26T13:42:49.801Z,32.70
2022-08-26T13:47:53.399Z,33.00
2022-08-26T13:52:56.693Z,33.30
2022-08-26T13:58:01.461Z,32.60
2022-08-26T14:03:08.210Z,31.80
2022-08-26T14:08:14.870Z,31.50
2022-08-26T14:13:19.517Z,31.50
2022-08-26T14:18:26.980Z,31.60
2022-08-26T14:23:31.605Z,31.60
2022-08-26T14:28:36.799Z,31.30
2022-08-26T14:33:40.259Z,30.90
2022-08-26T14:38:43.478Z,30.20
2022-08-26T14:44:00.438Z,29.80
2022-08-26T14:49:09.918Z,29.80
2022-08-26T14:54:16.246Z,28.60
2022-08-26T14:59:24.033Z,27.00
2022-08-26T15:04:27.688Z,26.50
2022-08-26T15:09:35.996Z,26.40
2022-08-26T15:14:40.737Z,27.10
2022-08-26T15:19:44.185Z,27.40
2022-08-26T15:24:47.705Z,27.90
2022-08-26T15:29:56.402Z,27.80
2022-08-26T15:34:59.764Z,27.90
2022-08-26T15:40:03.371Z,28.10
2022-08-26T15:45:09.142Z,28.30
2022-08-26T15:50:13.111Z,28.60
2022-08-26T15:55:16.534Z,28.80
2022-08-26T16:00:21.415Z,29.10
2022-08-26T16:05:24.660Z,29.30
2022-08-26T16:10:27.868Z,29.40
2022-08-26T16:15:34.636Z,29.00
2022-08-26T16:20:39.567Z,28.60
2022-08-26T16:25:53.892Z,27.80
2022-08-26T16:30:58.579Z,27.10
2022-08-26T16:36:02.092Z,26.20
2022-08-26T16:41:06.087Z,25.80
2022-08-26T16:46:11.379Z,25.50
2022-08-26T16:51:16.459Z,25.50
2022-08-26T16:56:23.708Z,25.40
2022-08-26T17:01:38.332Z,25.30
2022-08-26T17:06:41.645Z,25.00
2022-08-26T17:11:45.242Z,24.70
2022-08-26T17:16:51.277Z,24.60
2022-08-26T17:21:54.639Z,24.20
2022-08-26T17:27:10.915Z,23.70
2022-08-26T17:32:15.697Z,23.40
2022-08-26T17:37:19.312Z,23.30
2022-08-26T17:42:22.828Z,23.10
2022-08-26T17:47:36.680Z,23.10
2022-08-26T17:52:41.283Z,22.90
2022-08-26T17:57:53.206Z,22.90
2022-08-26T18:02:58.447Z,22.80
2022-08-26T18:08:01.760Z,22.60
2022-08-26T18:13:05.063Z,22.50
2022-08-26T18:18:09.735Z,22.30
2022-08-26T18:23:13.541Z,22.30
2022-08-26T18:28:16.842Z,22.20
2022-08-26T18:33:22.305Z,22.10
2022-08-26T18:38:25.597Z,22.00
2022-08-26T18:43:31.941Z,21.90
2022-08-26T18:48:41.791Z,21.70
2022-08-26T18:53:45.267Z,21.50
2022-08-26T18:58:49.022Z,21.30
2022-08-26T19:03:54.239Z,21.30
2022-08-26T19:08:58.144Z,21.40
2022-08-26T19:14:02.267Z,21.30
2022-08-26T19:19:08.122Z,21.20
2022-08-26T19:24:15.522Z,21.10
2022-08-26T19:29:21.751Z,21.00
2022-08-26T19:34:26.949Z,21.00
2022-08-26T19:39:30.336Z,20.80
2022-08-26T19:44:50.987Z,20.70
2022-08-26T19:49:56.937Z,20.70
2022-08-26T19:55:04.301Z,20.40
2022-08-26T20:00:10.650Z,20.40
2022-08-26T20:05:17.271Z,20.20
2022-08-26T20:10:26.755Z,20.10
2022-08-26T20:15:30.202Z,19.90
2022-08-26T20:20:52.139Z,19.80
2022-08-26T20:25:57.516Z,19.70
2022-08-26T20:31:01.324Z,19.50
2022-08-26T20:36:08.574Z,19.50
2022-08-26T20:41:12.041Z,19.40
2022-08-26T20:46:17.386Z,19.40
2022-08-26T20:51:24.887Z,19.30
2022-08-26T20:56:28.186Z,19.20
2022-08-26T21:01:34.787Z,19.10
2022-08-26T21:06:40.108Z,19.00
2022-08-26T21:11:46.004Z,18.90
2022-08-26T21:16:49.288Z,18.90
2022-08-26T21:21:54.035Z,18.90
2022-08-26T21:26:57.681Z,18.80
2022-08-26T21:32:01.201Z,18.80
2022-08-26T21:37:09.025Z,18.80
2022-08-26T21:42:20.082Z,18.80
2022-08-26T21:47:24.474Z,18.70
2022-08-26T21:52:29.102Z,18.80
2022-08-26T21:57:34.064Z,18.80
2022-08-26T22:02:37.905Z,18.80
2022-08-26T22:07:42.612Z,18.90
2022-08-26T22:12:45.912Z,18.80
2022-08-26T22:17:49.096Z,18.80
2022-08-26T22:22:53.704Z,18.70
2022-08-26T22:27:56.958Z,18.60
2022-08-26T22:33:00.334Z,18.40
2022-08-26T22:38:05.098Z,18.40
2022-08-26T22:43:08.264Z,18.30
2022-08-26T22:48:13.049Z,18.20
2022-08-26T22:53:18.700Z,18.20
2022-08-26T22:58:23.144Z,18.20
2022-08-26T23:03:34.284Z,18.30
2022-08-26T23:08:40.471Z,18.40
2022-08-26T23:13:43.895Z,18.50
2022-08-26T23:18:47.467Z,18.50
2022-08-26T23:23:53.188Z,18.60
2022-08-26T23:28:56.733Z,18.70
2022-08-26T23:34:18.339Z,18.70
2022-08-26T23:39:23.048Z,18.80
2022-08-26T23:44:26.783Z,18.80
2022-08-26T23:49:30.540Z,18.70
2022-08-26T23:54:35.344Z,18.70
2022-08-26T23:59:39.350Z,18.70
